Time;durP1;ratioP1;P1;durP2;ratioP2;P2;SDS_P1;SDS_P2;PMS_P1;PMS_P2;Temp;Humidity;BMP_temperature;BMP_pressure;BME280_temperature;BME280_humidity;BME280_pressure;Samples;Min_cycle;Max_cycle;Signal;HPM_P1;HPM_P2
2021/06/24 00:01:07;;;;;;;23.8;17.7;;;;;;;21.7;100;98786.16;;;;
2021/06/24 00:11:08;;;;;;;25.2;17.6;;;;;;;21.56;100;98767.6;;;;
2021/06/24 00:21:07;;;;;;;30.3;20.7;;;;;;;21.37;100;98731.35;;;;
2021/06/24 00:31:07;;;;;;;18.5;15.5;;;;;;;21.24;100;98710.84;;;;
2021/06/24 00:41:08;;;;;;;22.2;16.5;;;;;;;21.03;100;98712.12;;;;
2021/06/24 00:51:08;;;;;;;26.5;18.4;;;;;;;20.8;100;98714.19;;;;
2021/06/24 01:01:08;;;;;;;21;18.7;;;;;;;20.79;100;98718.08;;;;
2021/06/24 01:11:08;;;;;;;23.2;19.8;;;;;;;20.84;100;98695.84;;;;
2021/06/24 01:21:08;;;;;;;21.4;18.8;;;;;;;20.81;100;98676.63;;;;
2021/06/24 01:31:08;;;;;;;24.5;18.9;;;;;;;20.59;100;98683.77;;;;
2021/06/24 01:41:09;;;;;;;21.3;18.1;;;;;;;20.31;100;98675.16;;;;
2021/06/24 01:51:09;;;;;;;23.5;21.1;;;;;;;20.16;100;98663.21;;;;
2021/06/24 02:01:09;;;;;;;28.9;22.7;;;;;;;19.98;100;98662.94;;;;
2021/06/24 02:21:09;;;;;;;24.4;21.9;;;;;;;19.91;100;98667.5;;;;
2021/06/24 02:31:09;;;;;;;28.3;24.9;;;;;;;19.81;100;98657.98;;;;
2021/06/24 02:41:09;;;;;;;27.4;22.1;;;;;;;19.62;100;98644.36;;;;
2021/06/24 02:51:09;;;;;;;24.6;21.8;;;;;;;19.51;100;98626.98;;;;
2021/06/24 03:01:09;;;;;;;24.7;21;;;;;;;19.56;100;98619.28;;;;
2021/06/24 03:11:09;;;;;;;22.7;20.3;;;;;;;19.64;100;98619.41;;;;
2021/06/24 03:21:09;;;;;;;26.6;23.7;;;;;;;19.76;100;98621.92;;;;
2021/06/24 03:31:09;;;;;;;29.8;24.1;;;;;;;19.91;100;98624.53;;;;
2021/06/24 03:41:09;;;;;;;29;24;;;;;;;20.22;100;98617.94;;;;
2021/06/24 03:51:09;;;;;;;25.1;22.5;;;;;;;20.69;100;98630.31;;;;
2021/06/24 04:01:10;;;;;;;29.9;22.7;;;;;;;20.88;100;98610.96;;;;
2021/06/24 04:11:10;;;;;;;26.8;22.8;;;;;;;21.15;100;98608.92;;;;
2021/06/24 04:21:10;;;;;;;28.7;25.1;;;;;;;21.37;100;98605.22;;;;
2021/06/24 04:31:10;;;;;;;25;22.3;;;;;;;21.44;100;98595.11;;;;
2021/06/24 04:41:11;;;;;;;24.6;21.4;;;;;;;21.79;100;98615.77;;;;
2021/06/24 04:51:11;;;;;;;24.7;22.3;;;;;;;21.83;100;98606.36;;;;
2021/06/24 05:01:12;;;;;;;27.1;22.6;;;;;;;22.19;100;98617.61;;;;
2021/06/24 05:11:12;;;;;;;28.3;25.4;;;;;;;22;100;98611.25;;;;
2021/06/24 05:21:12;;;;;;;31.1;26.1;;;;;;;22.64;100;98628.05;;;;
2021/06/24 05:31:14;;;;;;;29;25.8;;;;;;;22.93;100;98623.48;;;;
2021/06/24 05:41:13;;;;;;;39;25.6;;;;;;;23.05;100;98629.4;;;;
2021/06/24 05:51:14;;;;;;;27.8;24.9;;;;;;;23.42;100;98617.33;;;;
2021/06/24 06:01:16;;;;;;;26.2;23.4;;;;;;;23.64;100;98607.13;;;;
2021/06/24 06:11:15;;;;;;;32.4;25.8;;;;;;;23.97;100;98610.23;;;;
2021/06/24 06:21:16;;;;;;;32.2;25.7;;;;;;;24.21;100;98596.84;;;;
2021/06/24 06:31:17;;;;;;;28.3;22.7;;;;;;;24.67;100;98604.95;;;;
2021/06/24 06:41:17;;;;;;;27.4;22.8;;;;;;;25.28;100;98611.73;;;;
2021/06/24 06:51:18;;;;;;;28.4;23.1;;;;;;;25.69;100;98612.63;;;;
2021/06/24 07:01:19;;;;;;;36.5;26.8;;;;;;;25.77;100;98622.42;;;;
2021/06/24 07:11:19;;;;;;;32.2;24.7;;;;;;;25.83;100;98620;;;;
2021/06/24 07:21:20;;;;;;;28.6;24.1;;;;;;;26.04;100;98609.55;;;;
2021/06/24 07:31:21;;;;;;;33.9;27;;;;;;;26.59;100;98613.34;;;;
2021/06/24 07:41:24;;;;;;;28.4;23.3;;;;;;;26.89;100;98618.91;;;;
2021/06/24 07:51:23;;;;;;;34;25.2;;;;;;;27.24;100;98612.89;;;;
2021/06/24 08:01:24;;;;;;;27;24.2;;;;;;;27.19;100;98615.33;;;;
2021/06/24 08:11:25;;;;;;;30;24.6;;;;;;;27.67;100;98618.55;;;;
2021/06/24 08:21:26;;;;;;;31.7;25.1;;;;;;;27.67;100;98618.55;;;;
2021/06/24 08:31:28;;;;;;;26.1;23.3;;;;;;;28.12;100;98615.44;;;;
2021/06/24 08:41:30;;;;;;;29.8;25.1;;;;;;;28.72;100;98623.41;;;;
2021/06/24 08:51:31;;;;;;;25.1;22.4;;;;;;;28.69;100;98621.5;;;;
2021/06/24 09:01:49;;;;;;;25.4;22.6;;;;;;;28.86;100;98614.79;;;;
2021/06/24 09:11:33;;;;;;;32.6;26;;;;;;;28.65;100;98598.56;;;;
2021/06/24 09:21:34;;;;;;;23.9;21.4;;;;;;;29.09;100;98608.33;;;;
2021/06/24 09:31:41;;;;;;;35.9;23;;;;;;;29.26;100;98596.07;;;;
2021/06/24 09:41:37;;;;;;;24.4;21.6;;;;;;;29.83;100;98594.69;;;;
2021/06/24 09:51:38;;;;;;;22.1;18.5;;;;;;;30.02;100;98584.72;;;;
2021/06/24 10:01:41;;;;;;;27.7;21.1;;;;;;;29.94;100;98584.91;;;;
2021/06/24 10:11:41;;;;;;;32.2;22.6;;;;;;;30.34;100;98576.27;;;;
2021/06/24 10:21:42;;;;;;;23.7;18.5;;;;;;;30.37;100;98567.06;;;;
2021/06/24 10:31:44;;;;;;;28.8;20.6;;;;;;;30.64;100;98556.37;;;;
2021/06/24 10:41:45;;;;;;;28.8;20.1;;;;;;;30.99;99.74023;98551.77;;;;
2021/06/24 10:51:47;;;;;;;23.6;18.9;;;;;;;31.1;97.91992;98529.16;;;;
2021/06/24 11:01:49;;;;;;;32;21.5;;;;;;;31;100;98530.28;;;;
2021/06/24 11:11:50;;;;;;;25;19.8;;;;;;;31.03;100;98530.16;;;;
2021/06/24 11:21:57;;;;;;;31.8;19.7;;;;;;;31.97;98.54004;98529.44;;;;
2021/06/24 11:31:55;;;;;;;24;17.7;;;;;;;31.73;100;98513.11;;;;
2021/06/24 11:41:55;;;;;;;23.1;16.1;;;;;;;32.03;98.08301;98496.95;;;;
2021/06/24 12:12:01;;;;;;;18.7;14.9;;;;;;;32.28;95.94531;98457.8;;;;
2021/06/24 12:22:02;;;;;;;26.7;16.7;;;;;;;32.49;92.04883;98453.41;;;;
2021/06/24 12:32:04;;;;;;;28.2;14.1;;;;;;;32.77;92.28516;98433.54;;;;
2021/06/24 12:42:06;;;;;;;20.1;16.2;;;;;;;33.01;91.70605;98408.63;;;;
2021/06/24 12:52:08;;;;;;;20.3;14.4;;;;;;;32.81;90.86328;98411.06;;;;
2021/06/24 13:02:09;;;;;;;19.4;15.5;;;;;;;33.01;89.13867;98399.5;;;;
2021/06/24 13:12:12;;;;;;;20.7;15.5;;;;;;;33.3;89.77539;98391.48;;;;
2021/06/24 13:22:13;;;;;;;19.8;15.7;;;;;;;33.53;90.55469;98364.95;;;;
2021/06/24 13:32:15;;;;;;;20.4;14.5;;;;;;;33.65;86.84863;98344.45;;;;
2021/06/24 13:42:17;;;;;;;19.9;16.6;;;;;;;32.43;92.22852;98347.97;;;;
2021/06/24 13:52:19;;;;;;;19.3;15.5;;;;;;;32.66;90.58496;98340.33;;;;
2021/06/24 14:02:21;;;;;;;16.2;13.6;;;;;;;34.12;86.97168;98338.28;;;;
2021/06/24 14:12:22;;;;;;;18.5;14;;;;;;;34.17;84.89355;98349.63;;;;
2021/06/24 14:22:24;;;;;;;23.2;14.9;;;;;;;33.05;89.20703;98321.91;;;;
2021/06/24 14:32:26;;;;;;;18.2;14.2;;;;;;;32.28;91.06445;98307.17;;;;
2021/06/24 14:42:29;;;;;;;17.1;12.6;;;;;;;32.22;90.65137;98286.67;;;;
2021/06/24 14:52:30;;;;;;;17.1;10.9;;;;;;;32.13;89.69141;98214.92;;;;
2021/06/24 15:02:31;;;;;;;23.6;11.6;;;;;;;31.61;91.77051;98201.86;;;;
2021/06/24 15:12:33;;;;;;;14.3;10.7;;;;;;;30.06;94.55762;98146.23;;;;
2021/06/24 15:22:35;;;;;;;18;12.4;;;;;;;29.66;94.7793;98173.68;;;;
2021/06/24 15:32:36;;;;;;;27.1;16;;;;;;;28.5;100;98309.67;;;;
2021/06/24 15:42:37;;;;;;;15.4;11.2;;;;;;;25.02;100;98271.92;;;;
2021/06/24 15:52:38;;;;;;;20.3;11.2;;;;;;;23.33;100;98256.59;;;;
2021/06/24 16:02:39;;;;;;;16.3;9.8;;;;;;;22.51;100;98196.38;;;;
2021/06/24 16:12:39;;;;;;;14.1;9.7;;;;;;;22.43;100;98222.27;;;;
2021/06/24 16:22:39;;;;;;;16;10.6;;;;;;;22.28;100;98332.52;;;;
2021/06/24 16:32:40;;;;;;;20.5;12.3;;;;;;;21.98;100;98325.41;;;;
2021/06/24 16:42:40;;;;;;;15.4;9.3;;;;;;;21.57;100;98245.33;;;;
2021/06/24 16:52:43;;;;;;;16.7;9.4;;;;;;;20.8;100;98281.38;;;;
2021/06/24 17:02:40;;;;;;;18.6;6.7;;;;;;;20.16;100;98265.63;;;;
2021/06/24 17:12:40;;;;;;;8.6;4.9;;;;;;;19.82;100;98341.51;;;;
2021/06/24 17:22:40;;;;;;;13.4;7.5;;;;;;;19.87;100;98406.8;;;;
2021/06/24 17:32:40;;;;;;;11.7;7.7;;;;;;;19.87;100;98415.8;;;;
2021/06/24 17:42:40;;;;;;;21.5;6.9;;;;;;;19.96;100;98475.67;;;;
2021/06/24 17:52:40;;;;;;;13.5;4.6;;;;;;;19.91;100;98300.95;;;;
2021/06/24 18:02:40;;;;;;;8.2;5.4;;;;;;;19.86;100;98386.86;;;;
2021/06/24 18:12:41;;;;;;;12;6.9;;;;;;;19.83;100;98475.13;;;;
2021/06/24 18:22:41;;;;;;;14.2;7.1;;;;;;;19.78;100;98513.77;;;;
2021/06/24 18:32:39;;;;;;;12.6;8.3;;;;;;;19.67;100;98471.8;;;;
2021/06/24 18:42:39;;;;;;;12.2;4.6;;;;;;;19.42;100;98432.38;;;;
2021/06/24 18:52:39;;;;;;;12.6;5.7;;;;;;;19.38;100;98380.38;;;;
2021/06/24 19:02:39;;;;;;;9.7;4.4;;;;;;;19.34;100;98333.08;;;;
2021/06/24 19:12:39;;;;;;;8.6;4.4;;;;;;;19.22;100;98254.09;;;;
2021/06/24 19:22:39;;;;;;;19.6;6.9;;;;;;;19.26;100;98275.99;;;;
2021/06/24 19:32:39;;;;;;;10.8;5.3;;;;;;;19.23;100;98336.84;;;;
2021/06/24 19:42:40;;;;;;;10;5.5;;;;;;;19.35;100;98320.2;;;;
2021/06/24 19:52:39;;;;;;;11.7;6;;;;;;;19.35;100;98336.6;;;;
2021/06/24 20:02:38;;;;;;;10.9;5.9;;;;;;;19.49;100;98355.95;;;;
2021/06/24 20:12:38;;;;;;;11.8;7.2;;;;;;;19.28;100;98437.61;;;;
2021/06/24 20:22:38;;;;;;;14.3;6.5;;;;;;;19.26;100;98470.79;;;;
2021/06/24 20:32:38;;;;;;;16.1;6.4;;;;;;;19.18;100;98537.4;;;;
2021/06/24 20:42:38;;;;;;;15.8;6.8;;;;;;;19.23;100;98533.58;;;;
2021/06/24 20:52:38;;;;;;;14.7;7.1;;;;;;;19.19;100;98483.55;;;;
2021/06/24 21:02:38;;;;;;;8.5;5.4;;;;;;;19.27;100;98507.88;;;;
2021/06/24 21:12:38;;;;;;;13.2;6.2;;;;;;;19.38;100;98615.42;;;;
2021/06/24 21:22:38;;;;;;;11.1;6;;;;;;;19.16;100;98831.28;;;;
2021/06/24 21:32:38;;;;;;;14.3;8.2;;;;;;;19.42;100;98629.19;;;;
2021/06/24 21:42:37;;;;;;;6.6;3.5;;;;;;;16.87;100;98770.41;;;;
2021/06/24 21:52:37;;;;;;;5.7;2.9;;;;;;;16.15;100;98624.41;;;;
2021/06/24 22:02:37;;;;;;;13.2;3.9;;;;;;;15.98;100;98660;;;;
2021/06/24 22:12:36;;;;;;;6.7;3.4;;;;;;;15.57;100;98704.48;;;;
2021/06/24 22:22:36;;;;;;;15.3;4.4;;;;;;;15.37;100;98659.15;;;;
2021/06/24 22:32:35;;;;;;;6.2;3.2;;;;;;;15.24;100;98704.47;;;;
2021/06/24 22:42:34;;;;;;;7.3;3.8;;;;;;;15.26;100;98618.06;;;;
2021/06/24 22:52:34;;;;;;;6.6;3.7;;;;;;;15.11;100;98584.2;;;;
2021/06/24 23:02:33;;;;;;;4.6;2.7;;;;;;;15.08;100;98546.88;;;;
2021/06/24 23:12:33;;;;;;;6.6;3.2;;;;;;;15.11;100;98519.05;;;;
2021/06/24 23:22:32;;;;;;;7.2;3.3;;;;;;;15.19;100;98495.64;;;;
2021/06/24 23:32:32;;;;;;;6;2.1;;;;;;;15.26;100;98501.3;;;;
2021/06/24 23:42:31;;;;;;;8.9;3.2;;;;;;;15.2;100;98442.94;;;;
2021/06/24 23:52:30;;;;;;;5.5;3;;;;;;;15.23;100;98398.81;;;;
